METAR Data
IDs: Format: Raw Decoded Include TAF

Data at: 2024 UTC 02 Oct 2022

KPOU 021953Z 03008KT 10SM BKN039 14/08 A3016 RMK AO2 SLP209 T01440083
KPOU 021853Z 36007G17KT 10SM CLR 14/08 A3016 RMK AO2 SLP208 T01390083
KPOU 021753Z 01009KT 10SM OVC110 13/08 A3016 RMK AO2 SLP209 60000 T01330078 10133 20111 51005
KPOU 021653Z 36011KT 10SM OVC110 13/08 A3016 RMK AO2 SLP209 T01330078
KPOU 021553Z 01012KT 10SM OVC100 12/07 A3015 RMK AO2 SLP206 T01220072
KPOU 021453Z 35010KT 10SM FEW033 BKN060 OVC075 12/07 A3014 RMK AO2 RAB05E32 SLP204 P0000 60000 T01170072 51017
KPOU 021353Z 02013G22KT 10SM FEW033 FEW050 OVC070 12/07 A3013 RMK AO2 SLP200 T01170072
KPOU 021253Z 01011G20KT 10SM SCT034 OVC065 12/08 A3012 RMK AO2 SLP196 T01170078
KPOU 021153Z 01013KT 10SM BKN060 OVC075 12/08 A3009 RMK AO2 SLP188 T01170078 10144 20117 53021
KPOU 021053Z 01013KT 10SM BKN060 OVC075 12/08 A3007 RMK AO2 SLP178 T01220083
KPOU 020953Z AUTO 01009KT 10SM OVC060 13/09 A3005 RMK AO2 SLP173 T01280089
KPOU 020853Z AUTO 01011G19KT 10SM OVC055 13/09 A3003 RMK AO2 SLP166 T01330089 51002
KPOU 020753Z AUTO 36012KT 10SM OVC049 14/09 A3003 RMK AO2 SLP165 T01390094
KPOU 020653Z AUTO 36008KT 10SM OVC046 14/09 A3003 RMK AO2 SLP165 T01390094
KPOU 020553Z AUTO 01010G16KT 10SM OVC042 15/09 A3002 RMK AO2 SLP164 T01500094 10161 20150 53001
KPOU 020453Z AUTO 01006KT 10SM OVC045 15/09 A3001 RMK AO2 SLP160 T01500094 401780106
KPOU 020353Z AUTO 03006KT 10SM OVC042 15/08 A3002 RMK AO2 SLP162 T01500083
KPOU 020253Z AUTO 02006KT 10SM OVC042 16/06 A3002 RMK AO2 SLP163 T01560061 50002
KPOU 020153Z AUTO 04005KT 10SM OVC041 16/06 A3003 RMK AO2 SLP165 T01610061
KPOU 020053Z AUTO 01006KT 10SM OVC037 16/09 A3001 RMK AO2 SLP160 T01560094
KPOU 012353Z 02005KT 10SM OVC039 16/09 A3002 RMK AO2 SLP161 T01560094 10178 20156 53000
KPOU 012253Z 36006KT 10SM OVC040 16/05 A3001 RMK AO2 SLP160 T01610050
KPOU 012153Z 02009KT 10SM OVC055 17/08 A3001 RMK AO2 SLP160 T01720083
KPOU 012053Z 02008KT 10SM BKN041 BKN050 OVC060 18/09 A3001 RMK AO2 SLP161 T01780089 55006
KPOU 011953Z 01010KT 10SM OVC042 17/09 A3001 RMK AO2 SLP159 T01720094
KPOU 011853Z 36012G18KT 10SM OVC048 17/09 A3002 RMK AO2 SLP162 T01720089
KPOU 011753Z 01011KT 10SM SCT050 17/10 A3003 RMK AO2 SLP166 T01670100 10172 20106 58017
KPOU 011653Z 36008KT 10SM OVC050 15/09 A3006 RMK AO2 SLP176 T01500094
KPOU 011553Z 34009KT 10SM OVC065 15/11 A3007 RMK AO2 SLP178 T01500106
KPOU 011453Z 36005KT 10SM OVC065 13/11 A3008 RMK AO2 SLP184 T01330106 58012
KPOU 011353Z 35005KT 10SM OVC070 12/10 A3011 RMK AO2 SLP193 T01170100
KPOU 011253Z 29009KT 10SM FEW055 SCT070 BKN110 11/10 A3011 RMK AO2 SLP193 T01110100
KPOU 011153Z 05003KT 10SM FEW075 OVC100 11/09 A3012 RMK AO2 RAE25 SLP196 P0001 60002 70002 T01060094 10111 20106 58007
KPOU 011053Z 32005KT 10SM -RA FEW070 OVC110 11/09 A3014 RMK AO2 RAB47 SLP203 P0000 T01060089
KPOU 010953Z AUTO 36003KT 10SM OVC110 11/09 A3013 RMK AO2 RAE0858B14E30 SLP200 P0000 T01060094
KPOU 010853Z AUTO 36004KT 10SM -RA FEW065 BKN120 11/09 A3014 RMK AO2 RAE11B49 SLP203 P0001 60001 T01060089 51001